Time;durP1;ratioP1;P1;durP2;ratioP2;P2;SDS_P1;SDS_P2;PMS_P1;PMS_P2;Temp;Humidity;BMP_temperature;BMP_pressure;BME280_temperature;BME280_humidity;BME280_pressure;Samples;Min_cycle;Max_cycle;Signal;HPM_P1;HPM_P2
2021/06/20 00:00:34;;;;;;;7.43;6.40;;;;;;;25.14;55.19;100512.75;5074717;28;20070;-56
2021/06/20 00:03:02;;;;;;;7.90;6.13;;;;;;;25.15;55.35;100520.56;5074654;28;20479;-58
2021/06/20 00:05:36;;;;;;;7.68;6.53;;;;;;;25.14;55.37;100526.91;5073706;28;20521;-57
2021/06/20 00:08:03;;;;;;;7.20;6.20;;;;;;;25.13;55.09;100529.75;5073507;28;20044;-57
2021/06/20 00:10:30;;;;;;;7.53;5.90;;;;;;;25.14;55.17;100531.41;5074473;28;20031;-57
2021/06/20 00:12:57;;;;;;;8.50;6.35;;;;;;;25.14;55.54;100521.56;5073820;28;20024;-57
2021/06/20 00:15:23;;;;;;;7.85;6.13;;;;;;;25.14;55.19;100521.56;5074100;28;20139;-57
2021/06/20 00:17:48;;;;;;;7.57;6.30;;;;;;;25.12;54.92;100523.59;5074458;28;20078;-57
2021/06/20 00:20:17;;;;;;;7.45;5.88;;;;;;;25.13;55.05;100516.41;5072700;28;20044;-57
2021/06/20 00:22:43;;;;;;;6.85;6.00;;;;;;;25.12;55.39;100523.59;5074410;28;20037;-57
2021/06/20 00:25:09;;;;;;;7.07;5.85;;;;;;;25.12;55.08;100517.44;5073081;28;20376;-57
2021/06/20 00:27:35;;;;;;;7.85;5.95;;;;;;;25.12;55.11;100517.44;5074031;28;20052;-57
2021/06/20 00:30:01;;;;;;;7.63;6.45;;;;;;;25.09;55.37;100536.47;5072817;28;20070;-57
2021/06/20 00:32:27;;;;;;;6.75;5.90;;;;;;;25.11;55.51;100556.59;5073744;28;20039;-58
2021/06/20 00:34:53;;;;;;;7.30;5.93;;;;;;;25.11;55.49;100550.44;5074073;28;20021;-58
2021/06/20 00:37:18;;;;;;;6.10;5.30;;;;;;;25.11;55.18;100545.09;5072579;28;20024;-57
2021/06/20 00:39:44;;;;;;;6.80;6.10;;;;;;;25.09;55.67;100541.78;5073282;28;20035;-57
2021/06/20 00:42:09;;;;;;;7.45;5.78;;;;;;;25.10;55.14;100546.94;5073377;28;20075;-57
2021/06/20 00:44:45;;;;;;;6.57;5.53;;;;;;;25.03;55.31;100538.00;5073728;28;20029;-57
2021/06/20 00:47:11;;;;;;;6.85;5.82;;;;;;;25.07;55.55;100536.63;5072958;28;20082;-58
2021/06/20 00:49:37;;;;;;;6.68;5.47;;;;;;;25.08;55.26;100546.28;5073832;28;20416;-56
2021/06/20 00:52:02;;;;;;;6.90;5.57;;;;;;;25.08;55.22;100556.94;5073447;28;20021;-57
2021/06/20 00:54:28;;;;;;;6.85;5.70;;;;;;;25.07;55.28;100573.13;5072742;28;20020;-57
2021/06/20 00:56:56;;;;;;;7.13;6.00;;;;;;;25.07;55.60;100579.28;5073474;28;20444;-57
2021/06/20 00:59:22;;;;;;;6.90;5.53;;;;;;;25.06;55.55;100569.63;5073323;28;20039;-58
2021/06/20 01:01:49;;;;;;;6.82;5.88;;;;;;;25.06;55.53;100572.28;5072763;28;20017;-58
2021/06/20 01:04:14;;;;;;;6.38;5.45;;;;;;;25.05;55.21;100573.28;5073236;28;20028;-58
2021/06/20 01:06:40;;;;;;;6.32;5.28;;;;;;;25.06;55.28;100582.97;5073476;28;20025;-58
2021/06/20 01:09:06;;;;;;;6.78;5.80;;;;;;;25.06;55.73;100577.63;5072324;28;20024;-58
2021/06/20 01:11:32;;;;;;;7.30;5.97;;;;;;;25.06;55.31;100576.81;5073261;28;20482;-57
2021/06/20 01:13:58;;;;;;;6.47;5.15;;;;;;;25.04;55.28;100561.00;5073459;28;20043;-58
2021/06/20 01:16:26;;;;;;;7.25;6.00;;;;;;;25.05;55.63;100564.47;5072189;28;20455;-58
2021/06/20 01:18:51;;;;;;;6.93;5.97;;;;;;;25.05;55.52;100556.47;5073080;28;20386;-59
2021/06/20 01:21:17;;;;;;;7.32;5.45;;;;;;;25.03;55.68;100539.84;5072647;28;20073;-58
2021/06/20 01:23:42;;;;;;;6.55;5.40;;;;;;;25.04;55.69;100523.66;5072202;28;20036;-58
2021/06/20 01:26:08;;;;;;;6.07;5.25;;;;;;;25.04;55.42;100514.81;5072661;28;20029;-58
2021/06/20 01:28:42;;;;;;;6.35;5.40;;;;;;;25.04;55.74;100514.81;5071972;28;20047;-58
2021/06/20 01:31:11;;;;;;;;;;;;;;;25.03;55.37;100516.66;5073210;28;20029;-58
2021/06/20 01:33:36;;;;;;;6.53;5.50;;;;;;;25.02;55.37;100517.66;5073031;28;19909;-57
2021/06/20 01:36:01;;;;;;;7.45;6.15;;;;;;;25.03;55.76;100510.50;5071696;28;20035;-57
2021/06/20 01:38:26;;;;;;;6.78;5.95;;;;;;;25.01;55.72;100508.03;5072547;28;20392;-58
2021/06/20 01:40:52;;;;;;;6.88;5.63;;;;;;;25.00;55.62;100509.03;5072616;28;20037;-57
2021/06/20 01:43:17;;;;;;;7.00;5.55;;;;;;;25.02;55.70;100514.19;5071671;28;20095;-57
2021/06/20 01:45:42;;;;;;;6.83;5.73;;;;;;;25.00;55.35;100501.03;5072518;28;20113;-57
2021/06/20 01:48:08;;;;;;;7.97;6.33;;;;;;;25.00;55.78;100493.03;5071853;28;20274;-57
2021/06/20 01:50:34;;;;;;;6.28;5.53;;;;;;;25.01;55.50;100501.84;5071689;28;20693;-58
2021/06/20 01:53:12;;;;;;;6.57;5.60;;;;;;;25.01;55.77;100507.19;5072598;28;20027;-57
2021/06/20 01:55:40;;;;;;;6.30;5.25;;;;;;;25.00;55.62;100498.34;5072472;28;20032;-58
2021/06/20 01:58:06;;;;;;;6.47;5.22;;;;;;;24.99;55.47;100489.53;5071367;28;20036;-58
2021/06/20 02:00:37;;;;;;;6.22;4.95;;;;;;;24.99;55.89;100521.53;5072367;28;20039;-58
2021/06/20 02:03:13;;;;;;;6.72;5.20;;;;;;;24.98;55.90;100543.84;5072087;28;20078;-58
2021/06/20 02:05:40;;;;;;;6.50;5.47;;;;;;;24.98;55.98;100557.19;5072064;28;20028;-57
2021/06/20 02:08:05;;;;;;;6.95;5.63;;;;;;;24.98;55.95;100577.69;5071871;28;20372;-57
2021/06/20 02:10:31;;;;;;;5.93;5.30;;;;;;;24.98;55.97;100570.50;5072320;28;20024;-57
2021/06/20 02:12:56;;;;;;;6.25;5.50;;;;;;;24.98;55.80;100577.69;5071509;28;20085;-57
2021/06/20 02:15:23;;;;;;;6.53;5.47;;;;;;;24.98;55.79;100573.16;5071772;28;20020;-57
2021/06/20 02:17:49;;;;;;;6.88;5.32;;;;;;;24.97;55.90;100571.50;5071453;28;20055;-58
2021/06/20 02:20:19;;;;;;;7.60;5.60;;;;;;;24.98;56.07;100573.16;5071489;28;20044;-58
2021/06/20 02:22:51;;;;;;;6.57;5.75;;;;;;;24.97;55.81;100565.34;5072094;28;20021;-57
2021/06/20 02:25:17;;;;;;;6.47;5.78;;;;;;;24.96;55.60;100566.38;5071133;28;20021;-57
2021/06/20 02:27:43;;;;;;;7.18;6.13;;;;;;;24.97;55.96;100568.03;5072046;28;20020;-58
2021/06/20 02:30:09;;;;;;;6.82;6.00;;;;;;;24.95;55.81;100573.53;5071530;28;20032;-58
2021/06/20 02:32:37;;;;;;;7.25;5.85;;;;;;;24.97;55.69;100568.03;5071223;28;20341;-58
2021/06/20 02:35:05;;;;;;;7.30;5.97;;;;;;;24.95;55.64;100572.69;5071378;28;20081;-58
2021/06/20 02:37:32;;;;;;;6.20;5.55;;;;;;;24.96;55.94;100585.03;5071788;28;20444;-58
2021/06/20 02:39:58;;;;;;;6.88;6.10;;;;;;;24.95;55.81;100575.38;5071141;28;20032;-58
2021/06/20 02:42:23;;;;;;;6.45;5.63;;;;;;;24.94;55.61;100574.56;5071669;28;20108;-58
2021/06/20 02:44:49;;;;;;;8.40;5.78;;;;;;;24.94;55.55;100571.88;5071769;28;20048;-57
2021/06/20 02:47:15;;;;;;;6.22;5.63;;;;;;;24.94;55.84;100573.69;5070709;28;20021;-57
2021/06/20 02:49:42;;;;;;;6.93;5.95;;;;;;;24.92;55.50;100575.72;5071550;28;20502;-57
2021/06/20 02:52:09;;;;;;;6.53;5.70;;;;;;;24.81;55.71;100569.78;5071613;28;20032;-57
2021/06/20 02:54:35;;;;;;;6.20;5.55;;;;;;;24.93;55.77;100580.88;5070972;28;20028;-57
2021/06/20 02:57:00;;;;;;;6.55;5.78;;;;;;;24.92;55.45;100583.72;5071652;28;20021;-58
2021/06/20 02:59:26;;;;;;;7.28;5.88;;;;;;;24.92;55.72;100591.72;5071316;28;20035;-57
2021/06/20 03:01:52;;;;;;;6.90;6.00;;;;;;;24.90;55.40;100599.88;5074201;28;20028;-58
2021/06/20 03:04:17;;;;;;;6.85;5.82;;;;;;;24.89;55.23;100600.88;5075211;28;20079;-57
2021/06/20 03:06:42;;;;;;;6.50;5.70;;;;;;;24.89;55.45;100603.53;5075847;28;20016;-57
2021/06/20 03:09:10;;;;;;;6.53;5.70;;;;;;;24.90;55.42;100607.06;5074823;28;20768;-56
2021/06/20 03:11:41;;;;;;;6.97;5.80;;;;;;;24.90;55.72;100612.38;5075889;28;20415;-57
2021/06/20 03:14:13;;;;;;;6.80;5.82;;;;;;;24.88;55.63;100609.03;5074658;28;20089;-57
2021/06/20 03:16:39;;;;;;;7.07;6.18;;;;;;;24.89;55.30;100616.06;5075497;28;20426;-57
2021/06/20 03:19:05;;;;;;;9.30;6.25;;;;;;;24.89;55.65;100616.06;5075179;28;20024;-57
2021/06/20 03:21:30;;;;;;;6.50;5.80;;;;;;;24.87;55.34;100616.22;5074679;28;20330;-58
2021/06/20 03:23:56;;;;;;;6.97;6.20;;;;;;;24.88;55.34;100611.72;5075460;28;20033;-58
2021/06/20 03:26:21;;;;;;;6.50;5.73;;;;;;;24.87;55.37;100618.88;5075067;28;20029;-57
2021/06/20 03:28:46;;;;;;;6.97;5.80;;;;;;;24.86;55.56;100603.88;5074654;28;20344;-57
2021/06/20 03:31:11;;;;;;;7.83;6.03;;;;;;;24.84;55.46;100605.91;5074899;28;20028;-57
2021/06/20 03:33:37;;;;;;;7.53;6.13;;;;;;;24.86;55.47;100611.88;5075628;28;20281;-57
2021/06/20 03:36:03;;;;;;;6.15;5.55;;;;;;;24.85;55.44;100604.91;5074236;28;20812;-57
2021/06/20 03:38:29;;;;;;;7.35;6.10;;;;;;;24.86;55.30;100611.06;5074859;28;20032;-58
2021/06/20 03:40:55;;;;;;;7.63;5.80;;;;;;;24.85;55.51;100602.25;5074955;28;20032;-56
2021/06/20 03:43:20;;;;;;;6.43;5.68;;;;;;;24.84;55.16;100597.91;5073998;28;20082;-57
2021/06/20 03:45:45;;;;;;;6.72;5.75;;;;;;;24.84;55.12;100597.91;5074822;28;20016;-57
2021/06/20 03:48:11;;;;;;;7.23;5.90;;;;;;;24.84;55.50;100597.09;5074843;28;20028;-57
2021/06/20 03:50:36;;;;;;;6.70;5.90;;;;;;;24.84;54.98;100608.56;5074255;28;20304;-58
2021/06/20 03:53:01;;;;;;;6.10;5.40;;;;;;;24.84;55.43;100605.09;5074718;28;20025;-57
2021/06/20 03:55:27;;;;;;;6.78;5.85;;;;;;;24.83;55.39;100614.91;5074835;28;20069;-57
2021/06/20 03:57:52;;;;;;;6.25;5.57;;;;;;;24.83;55.34;100617.56;5073913;28;20138;-57
2021/06/20 04:00:18;;;;;;;6.72;5.97;;;;;;;24.81;55.39;100628.41;5074293;28;20040;-57
2021/06/20 04:02:43;;;;;;;6.90;5.93;;;;;;;24.83;55.13;100636.22;5074728;28;20031;-57
2021/06/20 04:05:10;;;;;;;6.90;5.93;;;;;;;24.83;54.98;100635.41;5073732;28;20020;-57
2021/06/20 04:07:35;;;;;;;7.18;5.85;;;;;;;24.81;55.12;100647.06;5074776;28;20266;-58
2021/06/20 04:10:03;;;;;;;7.35;5.68;;;;;;;24.82;55.25;100650.56;5074702;28;20459;-58
2021/06/20 04:12:28;;;;;;;6.63;5.75;;;;;;;24.79;55.02;100646.41;5073522;28;20020;-58
2021/06/20 04:14:53;;;;;;;6.37;5.53;;;;;;;24.81;55.44;100655.03;5074503;28;20036;-58
2021/06/20 04:17:21;;;;;;;6.97;5.40;;;;;;;24.81;55.33;100651.56;5073309;28;20736;-57
2021/06/20 04:19:46;;;;;;;7.63;5.90;;;;;;;24.81;55.34;100652.38;5074110;28;20052;-57
2021/06/20 04:22:14;;;;;;;7.10;5.97;;;;;;;24.82;55.38;100658.56;5073938;28;20040;-57
2021/06/20 04:24:39;;;;;;;7.88;6.03;;;;;;;24.80;55.03;100661.41;5073524;28;20266;-57
2021/06/20 04:27:28;;;;;;;7.78;5.82;;;;;;;24.80;55.07;100655.22;5073883;28;20115;-57
2021/06/20 04:29:54;;;;;;;7.55;6.13;;;;;;;24.80;55.00;100657.88;5073318;28;20098;-57
2021/06/20 04:32:19;;;;;;;6.85;6.07;;;;;;;24.78;55.13;100652.75;5073265;28;20029;-57
2021/06/20 04:34:44;;;;;;;6.83;5.93;;;;;;;24.77;55.10;100655.59;5073712;28;20375;-58
2021/06/20 04:37:09;;;;;;;7.57;6.03;;;;;;;24.77;55.50;100656.41;5073239;28;20356;-57
2021/06/20 04:39:35;;;;;;;8.10;6.15;;;;;;;24.77;55.31;100653.75;5072973;28;20056;-57
2021/06/20 04:42:00;;;;;;;7.43;6.45;;;;;;;24.77;54.79;100645.75;5073673;28;20033;-58
2021/06/20 04:47:15;;;;;;;8.90;6.40;;;;;;;24.75;55.29;100642.44;5073008;28;20078;-57
2021/06/20 04:49:42;;;;;;;8.70;5.78;;;;;;;24.76;55.02;100638.75;5073757;28;20115;-57
2021/06/20 04:52:11;;;;;;;7.03;5.85;;;;;;;24.77;55.35;100655.59;5073485;28;20112;-58
2021/06/20 04:54:52;;;;;;;7.25;5.93;;;;;;;24.77;55.04;100667.06;5072972;28;20048;-57
2021/06/20 04:57:25;;;;;;;6.65;5.65;;;;;;;24.76;55.17;100662.75;5073667;28;20056;-57
2021/06/20 04:59:55;;;;;;;7.70;6.60;;;;;;;24.75;55.09;100662.91;5073117;28;20113;-58
2021/06/20 05:02:21;;;;;;;9.77;6.50;;;;;;;24.76;55.20;100673.41;5073333;28;20033;-57
2021/06/20 05:04:49;;;;;;;7.35;6.43;;;;;;;24.76;55.04;100668.06;5073432;28;20123;-57
2021/06/20 05:07:15;;;;;;;7.13;6.30;;;;;;;24.76;55.16;100669.91;5072784;28;20417;-57
2021/06/20 05:09:41;;;;;;;9.05;6.20;;;;;;;24.74;54.99;100672.75;5073662;28;20021;-56
2021/06/20 05:12:07;;;;;;;7.25;6.07;;;;;;;24.74;55.39;100670.09;5073116;28;20023;-57
2021/06/20 05:14:34;;;;;;;9.02;7.05;;;;;;;24.75;55.44;100665.56;5072454;28;20027;-57
2021/06/20 05:16:59;;;;;;;7.32;6.10;;;;;;;24.74;55.48;100670.09;5073522;28;20025;-58
2021/06/20 05:19:24;;;;;;;8.00;5.80;;;;;;;24.74;55.37;100679.91;5072536;28;20184;-58
2021/06/20 05:21:51;;;;;;;7.60;5.93;;;;;;;24.73;55.44;100671.06;5072466;28;20033;-57
2021/06/20 05:24:16;;;;;;;7.30;6.20;;;;;;;24.74;55.10;100671.94;5072223;28;20024;-57
2021/06/20 05:26:41;;;;;;;7.35;5.93;;;;;;;24.73;55.12;100683.56;5073054;28;20356;-57
2021/06/20 05:29:07;;;;;;;8.15;6.28;;;;;;;24.73;55.11;100686.25;5072008;28;20020;-58
2021/06/20 05:31:32;;;;;;;8.40;6.20;;;;;;;24.72;55.59;100679.25;5072999;28;20025;-57
2021/06/20 05:33:58;;;;;;;8.13;5.90;;;;;;;24.72;55.44;100677.44;5072793;28;20044;-57
2021/06/20 05:36:29;;;;;;;7.40;5.88;;;;;;;24.71;55.00;100694.41;5071725;28;20143;-57
2021/06/20 05:38:54;;;;;;;7.47;5.80;;;;;;;24.71;55.48;100694.41;5072847;28;20029;-57
2021/06/20 05:41:20;;;;;;;6.07;5.47;;;;;;;24.71;55.47;100691.75;5072563;28;20418;-57
2021/06/20 05:43:45;;;;;;;7.15;5.70;;;;;;;24.71;55.17;100686.41;5072009;28;20021;-58
2021/06/20 05:46:10;;;;;;;6.63;5.43;;;;;;;24.70;55.13;100699.91;5072269;28;20108;-58
2021/06/20 05:48:36;;;;;;;6.75;5.75;;;;;;;24.71;55.06;100709.56;5072514;28;20024;-57
2021/06/20 05:51:01;;;;;;;7.85;5.35;;;;;;;24.70;55.36;100705.25;5071433;28;20063;-58
2021/06/20 05:53:26;;;;;;;7.15;5.65;;;;;;;24.71;55.38;100704.25;5072577;28;20112;-56
2021/06/20 05:55:52;;;;;;;6.60;5.65;;;;;;;24.70;55.10;100711.38;5071625;28;20036;-57
2021/06/20 05:58:17;;;;;;;7.43;5.43;;;;;;;24.70;55.32;100705.25;5072003;28;20028;-57
2021/06/20 06:00:42;;;;;;;6.88;5.20;;;;;;;24.69;55.17;100700.91;5071413;28;20036;-57
2021/06/20 06:03:11;;;;;;;6.50;5.38;;;;;;;24.70;55.00;100695.41;5071185;28;20464;-57
2021/06/20 06:05:36;;;;;;;6.53;5.60;;;;;;;24.70;55.01;100705.25;5071966;28;20081;-57
2021/06/20 06:08:02;;;;;;;6.30;5.30;;;;;;;24.70;54.90;100710.56;5071990;28;20028;-57
2021/06/20 06:10:29;;;;;;;6.50;5.28;;;;;;;24.71;54.99;100709.56;5071468;28;20559;-58
2021/06/20 06:12:55;;;;;;;6.28;5.13;;;;;;;24.68;54.90;100705.41;5072213;28;20028;-57
2021/06/20 06:15:21;;;;;;;6.32;5.25;;;;;;;24.74;54.91;100717.22;5071754;28;20024;-58
2021/06/20 06:17:46;;;;;;;9.23;7.07;;;;;;;24.70;55.25;100730.03;5071330;28;20085;-57
2021/06/20 06:20:13;;;;;;;10.45;8.02;;;;;;;24.61;55.72;100725.75;5071231;28;20056;-58
2021/06/20 06:22:41;;;;;;;12.38;8.80;;;;;;;24.51;55.79;100730.41;5072130;28;20047;-57
2021/06/20 06:25:11;;;;;;;11.65;8.85;;;;;;;24.42;56.27;100737.59;5070825;28;20132;-57
2021/06/20 06:27:36;;;;;;;11.15;8.77;;;;;;;24.38;56.49;100749.56;5072286;28;20062;-57
2021/06/20 06:30:02;;;;;;;10.10;8.57;;;;;;;24.32;56.47;100755.56;5071539;28;20036;-58
2021/06/20 06:32:28;;;;;;;11.68;8.45;;;;;;;24.26;56.55;100751.75;5071027;28;20059;-58
2021/06/20 06:34:53;;;;;;;10.45;7.97;;;;;;;24.22;56.39;100747.75;5071887;28;20020;-57
2021/06/20 06:37:18;;;;;;;11.05;8.23;;;;;;;24.18;56.47;100755.25;5071493;28;20396;-58
2021/06/20 06:39:44;;;;;;;11.10;8.25;;;;;;;24.15;56.47;100758.25;5071115;28;20364;-58
2021/06/20 06:42:12;;;;;;;10.48;8.00;;;;;;;24.12;56.98;100763.91;5071506;28;20473;-58
2021/06/20 06:44:37;;;;;;;10.35;7.63;;;;;;;24.08;56.79;100765.22;5071600;28;20512;-58
2021/06/20 06:47:03;;;;;;;9.20;6.77;;;;;;;24.09;56.77;100762.38;5071662;28;20048;-59
2021/06/20 06:49:28;;;;;;;8.05;6.20;;;;;;;24.14;56.59;100771.72;5071810;28;20775;-59
2021/06/20 06:51:53;;;;;;;8.13;5.87;;;;;;;24.18;56.27;100765.91;5072298;28;20035;-59
2021/06/20 06:54:19;;;;;;;8.63;6.22;;;;;;;24.25;55.80;100766.06;5070998;28;20273;-58
2021/06/20 06:56:45;;;;;;;10.40;6.95;;;;;;;24.26;55.74;100762.41;5072913;28;20104;-58
2021/06/20 06:59:11;;;;;;;9.38;6.38;;;;;;;24.29;56.40;100750.56;5070886;28;20032;-59
2021/06/20 07:01:37;;;;;;;7.45;5.55;;;;;;;24.28;56.09;100741.75;5071908;28;20112;-59
2021/06/20 07:04:02;;;;;;;8.57;6.07;;;;;;;24.30;55.99;100747.75;5071549;28;20028;-57
2021/06/20 07:06:28;;;;;;;8.75;6.05;;;;;;;24.32;56.26;100742.25;5071130;28;20137;-59
2021/06/20 07:08:53;;;;;;;8.88;6.03;;;;;;;24.35;56.29;100739.25;5071899;28;20024;-59
2021/06/20 07:11:19;;;;;;;8.83;6.20;;;;;;;24.36;56.40;100746.25;5071183;28;20105;-59
2021/06/20 07:13:44;;;;;;;10.05;6.20;;;;;;;24.36;56.29;100746.25;5071106;28;20261;-58
2021/06/20 07:16:10;;;;;;;8.10;5.65;;;;;;;24.37;56.41;100758.53;5072154;28;20097;-59
2021/06/20 07:18:35;;;;;;;9.00;6.80;;;;;;;24.38;56.16;100754.91;5071914;28;20118;-59
2021/06/20 07:21:02;;;;;;;8.13;5.05;;;;;;;24.38;56.45;100747.72;5071392;28;20340;-58
2021/06/20 07:23:27;;;;;;;6.75;4.43;;;;;;;24.41;56.43;100743.91;5073121;28;20028;-60
2021/06/20 07:25:52;;;;;;;6.57;4.17;;;;;;;24.48;56.18;100762.69;5072186;28;20032;-58
2021/06/20 07:28:18;;;;;;;5.45;3.78;;;;;;;24.52;56.36;100764.03;5070671;28;20349;-59
2021/06/20 07:30:49;;;;;;;7.25;4.65;;;;;;;24.52;55.73;100775.50;5071515;28;20066;-58
2021/06/20 07:33:15;;;;;;;8.05;5.47;;;;;;;24.43;54.83;100763.19;5071334;28;20051;-58
2021/06/20 07:35:40;;;;;;;7.85;5.10;;;;;;;24.35;55.25;100768.53;5071173;28;20044;-58
2021/06/20 07:38:06;;;;;;;8.00;4.87;;;;;;;24.31;54.75;100778.72;5071150;28;20464;-59
2021/06/20 07:40:31;;;;;;;8.23;4.97;;;;;;;24.35;54.88;100787.19;5071258;28;20285;-57
2021/06/20 07:42:56;;;;;;;8.30;5.33;;;;;;;24.36;54.84;100786.19;5071109;28;20456;-58
2021/06/20 07:45:21;;;;;;;8.83;5.20;;;;;;;24.37;54.95;100795.81;5071056;28;20266;-60
2021/06/20 07:47:52;;;;;;;7.57;5.47;;;;;;;24.34;54.85;100790.84;5074551;28;20369;-59
2021/06/20 07:50:18;;;;;;;8.48;4.97;;;;;;;24.33;54.70;100786.53;5074414;28;20284;-59
2021/06/20 07:52:43;;;;;;;8.43;5.82;;;;;;;24.33;54.49;100787.34;5075483;28;20020;-59
2021/06/20 07:55:10;;;;;;;8.88;5.47;;;;;;;24.33;55.18;100791.84;5075215;28;20064;-59
2021/06/20 07:57:35;;;;;;;6.93;4.43;;;;;;;24.35;55.40;100796.00;5073926;28;20032;-58
2021/06/20 08:00:00;;;;;;;6.38;4.00;;;;;;;24.40;55.23;100792.84;5075572;28;20025;-58
2021/06/20 08:02:29;;;;;;;6.80;3.45;;;;;;;24.44;55.29;100794.19;5074527;28;20494;-58
2021/06/20 08:04:54;;;;;;;6.75;3.65;;;;;;;24.49;55.35;100786.50;5074666;28;20077;-59
2021/06/20 08:07:19;;;;;;;6.80;4.00;;;;;;;24.52;55.13;100786.16;5074348;28;20025;-58
2021/06/20 08:09:45;;;;;;;5.88;3.35;;;;;;;24.55;55.12;100779.69;5073920;28;20276;-60
2021/06/20 08:12:13;;;;;;;5.85;3.38;;;;;;;24.57;55.14;100783.84;5074243;28;20031;-59
2021/06/20 08:14:38;;;;;;;5.88;3.80;;;;;;;24.62;54.96;100781.53;5074244;28;20487;-58
2021/06/20 08:17:04;;;;;;;7.72;5.03;;;;;;;24.59;54.62;100783.69;5055441;28;20025;-58
2021/06/20 08:19:30;;;;;;;7.40;4.78;;;;;;;24.55;54.68;100787.69;5074243;28;20478;-58
2021/06/20 08:21:55;;;;;;;7.03;4.53;;;;;;;24.52;54.69;100790.69;5073991;28;20037;-59
2021/06/20 08:24:21;;;;;;;7.70;4.40;;;;;;;24.49;54.13;100793.69;5073330;28;20139;-58
2021/06/20 08:26:49;;;;;;;6.57;4.13;;;;;;;24.46;54.12;100802.81;5074198;28;20029;-59
2021/06/20 08:29:15;;;;;;;6.80;4.20;;;;;;;24.45;54.13;100815.31;5073587;28;20029;-60
2021/06/20 08:31:41;;;;;;;6.63;3.85;;;;;;;24.45;54.46;100817.97;5073525;28;20103;-58
2021/06/20 08:34:07;;;;;;;6.35;3.63;;;;;;;24.45;54.31;100811.84;5073899;28;20132;-59
2021/06/20 08:36:33;;;;;;;5.57;3.60;;;;;;;24.44;54.22;100818.16;5073973;28;20134;-58
2021/06/20 08:38:58;;;;;;;7.03;3.85;;;;;;;24.39;54.00;100818.66;5073074;28;20036;-59
2021/06/20 08:41:25;;;;;;;7.13;4.28;;;;;;;24.38;54.71;100819.63;5073435;28;20345;-59
2021/06/20 08:43:51;;;;;;;6.75;4.10;;;;;;;24.40;54.80;100824.78;5073664;28;20511;-58
2021/06/20 08:46:19;;;;;;;7.68;3.90;;;;;;;24.39;54.85;100836.47;5072860;28;20021;-59
2021/06/20 08:48:44;;;;;;;6.78;3.55;;;;;;;24.37;54.98;100843.78;5073977;28;20027;-62
2021/06/20 08:51:10;;;;;;;7.47;4.50;;;;;;;24.40;54.73;100840.78;5073343;28;20020;-59
2021/06/20 08:53:35;;;;;;;6.20;4.20;;;;;;;24.40;54.83;100817.66;5072898;28;20070;-59
2021/06/20 08:56:01;;;;;;;6.57;4.13;;;;;;;24.39;54.55;100823.16;5073455;28;20268;-58
2021/06/20 08:58:29;;;;;;;6.25;4.05;;;;;;;24.38;54.43;100805.50;5072123;28;20028;-60
2021/06/20 09:00:56;;;;;;;6.80;4.10;;;;;;;24.38;54.37;100803.66;5072797;28;20017;-59
2021/06/20 09:03:22;;;;;;;6.80;3.58;;;;;;;24.39;54.62;100812.50;5073299;28;20024;-59
2021/06/20 09:05:59;;;;;;;5.70;3.55;;;;;;;24.42;54.37;100822.81;5072791;28;20027;-59
2021/06/20 09:08:26;;;;;;;7.20;3.75;;;;;;;24.43;54.63;100813.81;5073069;28;20357;-60
2021/06/20 09:10:54;;;;;;;8.23;3.47;;;;;;;24.44;54.68;100807.50;5073162;28;20110;-59
2021/06/20 09:13:19;;;;;;;6.22;2.92;;;;;;;24.48;54.64;100810.66;5072398;28;20020;-59
2021/06/20 09:15:47;;;;;;;6.05;3.50;;;;;;;24.51;54.37;100797.81;5073356;28;20024;-60
2021/06/20 09:18:13;;;;;;;5.35;3.00;;;;;;;24.56;53.55;100802.66;5072942;28;20032;-60
2021/06/20 09:20:43;;;;;;;5.57;3.30;;;;;;;24.51;52.88;100800.47;5072276;28;20066;-60
2021/06/20 09:23:14;;;;;;;5.78;3.15;;;;;;;24.45;53.36;100804.66;5073031;28;20021;-60
2021/06/20 09:25:41;;;;;;;4.90;3.10;;;;;;;24.45;53.23;100812.66;5073285;28;20103;-59
2021/06/20 09:28:09;;;;;;;6.10;3.10;;;;;;;24.44;53.35;100816.31;5072175;28;20040;-58
2021/06/20 09:30:42;;;;;;;5.57;3.28;;;;;;;24.45;53.51;100810.00;5073126;28;20031;-59
2021/06/20 09:33:08;;;;;;;5.60;3.27;;;;;;;24.48;53.75;100821.31;5072747;28;20024;-58
2021/06/20 09:35:42;;;;;;;4.95;3.08;;;;;;;24.44;53.42;100826.97;5072156;28;20126;-59
2021/06/20 09:38:28;;;;;;;;;;;;;;;24.44;53.50;100816.31;5072966;28;20029;-59
2021/06/20 09:41:08;;;;;;;6.15;3.20;;;;;;;24.44;53.16;100815.47;5071582;28;19919;-60
2021/06/20 09:43:35;;;;;;;4.80;3.08;;;;;;;24.46;53.41;100818.81;5072829;28;20380;-58
2021/06/20 09:46:02;;;;;;;5.35;2.72;;;;;;;24.46;53.08;100810.81;5071758;28;20033;-59
2021/06/20 09:48:55;;;;;;;4.00;2.53;;;;;;;24.46;53.44;100816.13;5072046;28;20055;-58
2021/06/20 09:51:25;;;;;;;4.28;2.30;;;;;;;24.45;53.21;100815.31;5063822;28;20037;-59
2021/06/20 09:53:51;;;;;;;3.67;2.08;;;;;;;24.41;52.51;100813.97;5072820;28;20032;-59
2021/06/20 09:56:23;;;;;;;4.15;2.35;;;;;;;24.40;51.82;100819.47;5071683;28;20453;-60
2021/06/20 09:59:06;;;;;;;4.85;2.13;;;;;;;24.42;51.74;100815.66;5072530;28;20116;-58
2021/06/20 10:01:32;;;;;;;4.88;2.10;;;;;;;24.44;51.68;100829.63;5071095;28;20119;-59
2021/06/20 10:03:58;;;;;;;4.50;2.00;;;;;;;24.41;51.23;100821.97;5071653;28;20025;-59
2021/06/20 10:06:24;;;;;;;3.58;2.00;;;;;;;24.40;51.55;100830.97;5072009;28;20439;-58
2021/06/20 10:08:56;;;;;;;5.10;1.67;;;;;;;24.40;51.32;100838.13;5072192;28;20028;-59
2021/06/20 10:11:27;;;;;;;4.35;1.85;;;;;;;24.37;51.19;100835.78;5071777;28;20030;-58
2021/06/20 10:13:55;;;;;;;2.92;1.52;;;;;;;24.33;51.00;100839.78;5072364;28;20029;-59
2021/06/20 10:16:26;;;;;;;4.00;2.05;;;;;;;24.29;50.47;100839.25;5071202;28;20391;-59
2021/06/20 10:18:56;;;;;;;3.30;1.83;;;;;;;24.25;50.48;100838.78;5072108;28;20095;-59
2021/06/20 10:21:42;;;;;;;3.22;1.77;;;;;;;24.24;50.57;100842.44;5071545;28;20179;-59
2021/06/20 10:24:19;;;;;;;3.40;1.70;;;;;;;24.18;51.38;100832.47;5071073;28;20056;-59
2021/06/20 10:27:04;;;;;;;3.45;1.77;;;;;;;24.13;51.55;100841.94;5071922;28;20024;-60
2021/06/20 10:29:38;;;;;;;3.13;1.75;;;;;;;24.08;51.95;100839.75;5071532;28;20059;-58
2021/06/20 10:32:19;;;;;;;5.88;1.80;;;;;;;24.02;51.50;100840.41;5067177;28;20059;-59
2021/06/20 10:35:09;;;;;;;4.43;1.90;;;;;;;24.02;52.32;100846.59;5071813;28;20135;-59
2021/06/20 10:37:38;;;;;;;3.72;1.90;;;;;;;24.01;52.42;100836.91;5071548;28;20067;-58
2021/06/20 10:40:43;;;;;;;3.95;1.80;;;;;;;24.00;52.02;100839.75;5071625;28;20032;-59
2021/06/20 10:43:20;;;;;;;3.67;1.70;;;;;;;24.03;52.19;100850.06;5009924;28;20149;-61
2021/06/20 10:45:49;;;;;;;5.97;1.80;;;;;;;24.05;51.65;100843.59;5009283;28;20045;-59
2021/06/20 10:48:22;;;;;;;3.20;1.80;;;;;;;24.12;51.41;100845.59;5043936;28;20480;-59
2021/06/20 10:50:48;;;;;;;4.37;1.80;;;;;;;24.20;51.95;100838.44;5071765;28;20033;-58
2021/06/20 10:53:14;;;;;;;3.30;1.85;;;;;;;24.25;51.70;100833.44;5069618;28;20304;-59
2021/06/20 10:55:41;;;;;;;3.38;1.60;;;;;;;24.30;52.27;100816.97;5071929;28;20024;-59
2021/06/20 10:58:28;;;;;;;3.63;1.90;;;;;;;24.35;52.03;100814.63;5071001;28;20116;-63
2021/06/20 11:01:18;;;;;;;3.95;1.80;;;;;;;24.42;51.95;100815.66;5071790;28;20032;-59
2021/06/20 11:03:59;;;;;;;2.30;1.35;;;;;;;24.49;51.47;100822.97;5071621;28;20112;-57
2021/06/20 11:06:26;;;;;;;2.53;1.30;;;;;;;24.51;51.43;100805.81;5070733;28;20048;-60
2021/06/20 11:09:08;;;;;;;2.97;1.25;;;;;;;24.55;51.40;100801.00;5071810;28;20037;-59
2021/06/20 11:11:36;;;;;;;2.75;1.23;;;;;;;24.53;51.04;100798.50;5071535;28;20021;-59
2021/06/20 11:14:03;;;;;;;2.67;1.35;;;;;;;24.51;50.78;100802.31;5070845;28;20055;-59
2021/06/20 11:16:51;;;;;;;2.70;1.48;;;;;;;24.49;50.76;100801.66;5071243;28;20380;-58
2021/06/20 11:19:25;;;;;;;2.60;1.40;;;;;;;24.49;51.18;100801.66;5061992;28;20036;-59
2021/06/20 11:21:55;;;;;;;3.15;1.50;;;;;;;24.45;51.30;100799.34;5072283;28;20036;-58
2021/06/20 11:24:28;;;;;;;2.25;1.20;;;;;;;24.44;51.29;100797.66;5075214;28;20976;-58
2021/06/20 11:27:07;;;;;;;3.55;1.40;;;;;;;24.44;50.85;100805.66;5074749;28;20031;-59
2021/06/20 11:29:47;;;;;;;3.83;1.20;;;;;;;24.44;51.02;100797.66;5075394;28;20036;-60